sensor_id;sensor_type;location;lat;lon;timestamp;P1;durP1;ratioP1;P2;durP2;ratioP2
59008;SDS011;44794;42.652;23.318;2023-08-17T00:01:49;14.57;;;8.25;;
59008;SDS011;44794;42.652;23.318;2023-08-17T00:04:15;10.23;;;7.97;;
59008;SDS011;44794;42.652;23.318;2023-08-17T00:06:40;13.77;;;9.10;;
59008;SDS011;44794;42.652;23.318;2023-08-17T00:09:05;12.13;;;8.32;;
59008;SDS011;44794;42.652;23.318;2023-08-17T00:11:32;14.88;;;9.23;;
59008;SDS011;44794;42.652;23.318;2023-08-17T00:13:58;15.02;;;9.60;;
59008;SDS011;44794;42.652;23.318;2023-08-17T00:16:23;14.65;;;9.05;;
59008;SDS011;44794;42.652;23.318;2023-08-17T00:18:49;12.15;;;8.90;;
59008;SDS011;44794;42.652;23.318;2023-08-17T00:21:14;14.63;;;8.13;;
59008;SDS011;44794;42.652;23.318;2023-08-17T00:23:40;12.27;;;8.25;;
59008;SDS011;44794;42.652;23.318;2023-08-17T00:26:05;11.13;;;9.18;;
59008;SDS011;44794;42.652;23.318;2023-08-17T00:28:31;14.57;;;8.80;;
59008;SDS011;44794;42.652;23.318;2023-08-17T00:30:57;15.95;;;9.00;;
59008;SDS011;44794;42.652;23.318;2023-08-17T00:33:22;14.55;;;8.98;;
59008;SDS011;44794;42.652;23.318;2023-08-17T00:35:48;15.07;;;8.88;;
59008;SDS011;44794;42.652;23.318;2023-08-17T00:38:13;12.13;;;8.38;;
59008;SDS011;44794;42.652;23.318;2023-08-17T00:40:38;12.68;;;8.55;;
59008;SDS011;44794;42.652;23.318;2023-08-17T00:43:04;10.60;;;7.95;;
59008;SDS011;44794;42.652;23.318;2023-08-17T00:45:30;11.98;;;7.43;;
59008;SDS011;44794;42.652;23.318;2023-08-17T00:47:57;12.93;;;7.45;;
59008;SDS011;44794;42.652;23.318;2023-08-17T00:50:23;11.85;;;8.10;;
59008;SDS011;44794;42.652;23.318;2023-08-17T00:52:51;11.35;;;8.15;;
59008;SDS011;44794;42.652;23.318;2023-08-17T00:55:17;17.23;;;7.07;;
59008;SDS011;44794;42.652;23.318;2023-08-17T00:57:43;10.88;;;6.95;;
59008;SDS011;44794;42.652;23.318;2023-08-17T01:00:09;9.75;;;6.53;;
59008;SDS011;44794;42.652;23.318;2023-08-17T01:02:36;13.05;;;7.00;;
59008;SDS011;44794;42.652;23.318;2023-08-17T01:05:05;8.68;;;6.07;;
59008;SDS011;44794;42.652;23.318;2023-08-17T01:07:31;8.68;;;6.00;;
59008;SDS011;44794;42.652;23.318;2023-08-17T01:09:57;10.02;;;5.95;;
59008;SDS011;44794;42.652;23.318;2023-08-17T01:12:31;9.10;;;6.35;;
59008;SDS011;44794;42.652;23.318;2023-08-17T01:15:18;9.35;;;5.82;;
59008;SDS011;44794;42.652;23.318;2023-08-17T01:17:53;9.30;;;5.35;;
59008;SDS011;44794;42.652;23.318;2023-08-17T01:20:23;7.47;;;5.30;;
59008;SDS011;44794;42.652;23.318;2023-08-17T01:22:49;7.20;;;5.50;;
59008;SDS011;44794;42.652;23.318;2023-08-17T01:25:16;8.07;;;5.70;;
59008;SDS011;44794;42.652;23.318;2023-08-17T01:27:43;11.23;;;5.40;;
59008;SDS011;44794;42.652;23.318;2023-08-17T01:30:10;7.03;;;5.35;;
59008;SDS011;44794;42.652;23.318;2023-08-17T01:32:48;9.60;;;5.30;;
59008;SDS011;44794;42.652;23.318;2023-08-17T01:35:28;8.10;;;5.10;;
59008;SDS011;44794;42.652;23.318;2023-08-17T01:37:59;5.95;;;4.70;;
59008;SDS011;44794;42.652;23.318;2023-08-17T01:40:31;8.52;;;4.50;;
59008;SDS011;44794;42.652;23.318;2023-08-17T01:42:58;10.02;;;5.18;;
59008;SDS011;44794;42.652;23.318;2023-08-17T01:45:26;9.45;;;5.00;;
59008;SDS011;44794;42.652;23.318;2023-08-17T01:47:51;7.05;;;4.30;;
59008;SDS011;44794;42.652;23.318;2023-08-17T01:50:17;9.60;;;4.85;;
59008;SDS011;44794;42.652;23.318;2023-08-17T01:52:42;9.93;;;4.65;;
59008;SDS011;44794;42.652;23.318;2023-08-17T01:55:08;7.55;;;4.28;;
59008;SDS011;44794;42.652;23.318;2023-08-17T01:57:33;11.80;;;4.82;;
59008;SDS011;44794;42.652;23.318;2023-08-17T02:00:00;6.38;;;4.80;;
59008;SDS011;44794;42.652;23.318;2023-08-17T02:02:26;7.63;;;4.65;;
59008;SDS011;44794;42.652;23.318;2023-08-17T02:04:51;5.55;;;4.57;;
59008;SDS011;44794;42.652;23.318;2023-08-17T02:07:16;8.98;;;4.75;;
59008;SDS011;44794;42.652;23.318;2023-08-17T02:09:42;7.72;;;4.55;;
59008;SDS011;44794;42.652;23.318;2023-08-17T02:12:07;7.75;;;5.00;;
59008;SDS011;44794;42.652;23.318;2023-08-17T02:14:33;8.02;;;4.63;;
59008;SDS011;44794;42.652;23.318;2023-08-17T02:16:59;6.63;;;4.85;;
59008;SDS011;44794;42.652;23.318;2023-08-17T02:19:24;6.90;;;4.53;;
59008;SDS011;44794;42.652;23.318;2023-08-17T02:21:49;6.32;;;4.63;;
59008;SDS011;44794;42.652;23.318;2023-08-17T02:24:15;6.65;;;4.70;;
59008;SDS011;44794;42.652;23.318;2023-08-17T02:26:40;9.65;;;4.95;;
59008;SDS011;44794;42.652;23.318;2023-08-17T02:29:06;7.68;;;4.90;;
59008;SDS011;44794;42.652;23.318;2023-08-17T02:31:31;8.38;;;4.65;;
59008;SDS011;44794;42.652;23.318;2023-08-17T02:33:56;9.98;;;4.53;;
59008;SDS011;44794;42.652;23.318;2023-08-17T02:36:30;9.35;;;5.00;;
59008;SDS011;44794;42.652;23.318;2023-08-17T02:38:55;9.57;;;4.88;;
59008;SDS011;44794;42.652;23.318;2023-08-17T02:41:21;7.63;;;4.68;;
59008;SDS011;44794;42.652;23.318;2023-08-17T02:43:46;6.40;;;4.80;;
59008;SDS011;44794;42.652;23.318;2023-08-17T02:46:12;9.07;;;4.88;;
59008;SDS011;44794;42.652;23.318;2023-08-17T02:48:37;6.53;;;4.60;;
59008;SDS011;44794;42.652;23.318;2023-08-17T02:51:02;7.45;;;5.15;;
59008;SDS011;44794;42.652;23.318;2023-08-17T02:53:28;10.45;;;5.38;;
59008;SDS011;44794;42.652;23.318;2023-08-17T02:55:56;5.90;;;4.78;;
59008;SDS011;44794;42.652;23.318;2023-08-17T02:58:22;7.65;;;4.80;;
59008;SDS011;44794;42.652;23.318;2023-08-17T03:00:47;7.22;;;5.03;;
59008;SDS011;44794;42.652;23.318;2023-08-17T03:03:12;10.27;;;5.18;;
59008;SDS011;44794;42.652;23.318;2023-08-17T03:05:38;6.40;;;4.93;;
59008;SDS011;44794;42.652;23.318;2023-08-17T03:08:03;6.78;;;4.70;;
59008;SDS011;44794;42.652;23.318;2023-08-17T03:10:29;10.10;;;4.55;;
59008;SDS011;44794;42.652;23.318;2023-08-17T03:12:55;7.22;;;5.18;;
59008;SDS011;44794;42.652;23.318;2023-08-17T03:15:21;7.45;;;4.75;;
59008;SDS011;44794;42.652;23.318;2023-08-17T03:17:46;9.23;;;4.90;;
59008;SDS011;44794;42.652;23.318;2023-08-17T03:20:12;7.65;;;5.20;;
59008;SDS011;44794;42.652;23.318;2023-08-17T03:22:37;9.55;;;5.00;;
59008;SDS011;44794;42.652;23.318;2023-08-17T03:25:02;7.57;;;4.93;;
59008;SDS011;44794;42.652;23.318;2023-08-17T03:27:29;9.90;;;4.70;;
59008;SDS011;44794;42.652;23.318;2023-08-17T03:29:55;8.57;;;4.88;;
59008;SDS011;44794;42.652;23.318;2023-08-17T03:32:21;9.80;;;4.95;;
59008;SDS011;44794;42.652;23.318;2023-08-17T03:34:46;11.82;;;4.63;;
59008;SDS011;44794;42.652;23.318;2023-08-17T03:37:12;10.50;;;5.30;;
59008;SDS011;44794;42.652;23.318;2023-08-17T03:39:37;5.43;;;4.70;;
59008;SDS011;44794;42.652;23.318;2023-08-17T03:42:02;8.55;;;5.00;;
59008;SDS011;44794;42.652;23.318;2023-08-17T03:44:28;8.52;;;4.70;;
59008;SDS011;44794;42.652;23.318;2023-08-17T03:46:53;8.25;;;4.70;;
59008;SDS011;44794;42.652;23.318;2023-08-17T03:49:19;7.20;;;4.35;;
59008;SDS011;44794;42.652;23.318;2023-08-17T03:51:44;8.88;;;4.63;;
59008;SDS011;44794;42.652;23.318;2023-08-17T03:54:11;9.75;;;4.40;;
59008;SDS011;44794;42.652;23.318;2023-08-17T03:56:37;6.47;;;4.40;;
59008;SDS011;44794;42.652;23.318;2023-08-17T03:59:02;6.80;;;4.47;;
59008;SDS011;44794;42.652;23.318;2023-08-17T04:01:28;7.85;;;4.28;;
59008;SDS011;44794;42.652;23.318;2023-08-17T04:03:54;7.15;;;4.30;;
59008;SDS011;44794;42.652;23.318;2023-08-17T04:06:20;6.75;;;4.30;;
59008;SDS011;44794;42.652;23.318;2023-08-17T04:08:45;6.15;;;4.38;;
59008;SDS011;44794;42.652;23.318;2023-08-17T04:11:11;9.77;;;4.60;;
59008;SDS011;44794;42.652;23.318;2023-08-17T04:13:36;6.70;;;4.10;;
59008;SDS011;44794;42.652;23.318;2023-08-17T04:16:02;9.07;;;4.30;;
59008;SDS011;44794;42.652;23.318;2023-08-17T04:18:27;5.57;;;3.92;;
59008;SDS011;44794;42.652;23.318;2023-08-17T04:20:52;8.23;;;4.30;;
59008;SDS011;44794;42.652;23.318;2023-08-17T04:23:18;10.85;;;4.10;;
59008;SDS011;44794;42.652;23.318;2023-08-17T04:25:43;8.90;;;4.00;;
59008;SDS011;44794;42.652;23.318;2023-08-17T04:28:09;11.63;;;4.70;;
59008;SDS011;44794;42.652;23.318;2023-08-17T04:30:34;9.50;;;4.13;;
59008;SDS011;44794;42.652;23.318;2023-08-17T04:33:00;6.28;;;4.00;;
59008;SDS011;44794;42.652;23.318;2023-08-17T04:35:25;7.20;;;3.80;;
59008;SDS011;44794;42.652;23.318;2023-08-17T04:37:50;16.10;;;4.47;;
59008;SDS011;44794;42.652;23.318;2023-08-17T04:40:16;10.77;;;4.38;;
59008;SDS011;44794;42.652;23.318;2023-08-17T04:42:41;8.35;;;4.00;;
59008;SDS011;44794;42.652;23.318;2023-08-17T04:45:07;6.93;;;3.70;;
59008;SDS011;44794;42.652;23.318;2023-08-17T04:47:33;7.95;;;4.05;;
59008;SDS011;44794;42.652;23.318;2023-08-17T04:49:59;11.38;;;4.38;;
59008;SDS011;44794;42.652;23.318;2023-08-17T04:52:24;12.93;;;4.35;;
59008;SDS011;44794;42.652;23.318;2023-08-17T04:54:49;13.80;;;4.35;;
59008;SDS011;44794;42.652;23.318;2023-08-17T04:57:15;10.23;;;4.68;;
59008;SDS011;44794;42.652;23.318;2023-08-17T04:59:40;6.95;;;4.00;;
59008;SDS011;44794;42.652;23.318;2023-08-17T05:02:06;10.57;;;3.75;;
59008;SDS011;44794;42.652;23.318;2023-08-17T05:04:31;7.22;;;3.60;;
59008;SDS011;44794;42.652;23.318;2023-08-17T05:06:57;10.70;;;4.07;;
59008;SDS011;44794;42.652;23.318;2023-08-17T05:09:22;10.57;;;3.70;;
59008;SDS011;44794;42.652;23.318;2023-08-17T05:11:48;9.63;;;3.97;;
59008;SDS011;44794;42.652;23.318;2023-08-17T05:14:13;11.18;;;3.97;;
59008;SDS011;44794;42.652;23.318;2023-08-17T05:16:39;10.85;;;3.72;;
59008;SDS011;44794;42.652;23.318;2023-08-17T05:19:04;8.60;;;3.67;;
59008;SDS011;44794;42.652;23.318;2023-08-17T05:21:29;15.05;;;4.10;;
59008;SDS011;44794;42.652;23.318;2023-08-17T05:23:55;14.02;;;4.10;;
59008;SDS011;44794;42.652;23.318;2023-08-17T05:26:21;14.48;;;3.85;;
59008;SDS011;44794;42.652;23.318;2023-08-17T05:28:47;9.35;;;4.50;;
59008;SDS011;44794;42.652;23.318;2023-08-17T05:31:12;9.75;;;4.43;;
59008;SDS011;44794;42.652;23.318;2023-08-17T05:33:38;16.27;;;5.10;;
59008;SDS011;44794;42.652;23.318;2023-08-17T05:36:05;8.43;;;4.25;;
59008;SDS011;44794;42.652;23.318;2023-08-17T05:38:31;14.20;;;4.45;;
59008;SDS011;44794;42.652;23.318;2023-08-17T05:40:57;8.73;;;4.00;;
59008;SDS011;44794;42.652;23.318;2023-08-17T05:43:23;7.80;;;3.70;;
59008;SDS011;44794;42.652;23.318;2023-08-17T05:45:49;13.65;;;4.40;;
59008;SDS011;44794;42.652;23.318;2023-08-17T05:48:14;11.57;;;3.88;;
59008;SDS011;44794;42.652;23.318;2023-08-17T05:50:43;13.35;;;5.53;;
59008;SDS011;44794;42.652;23.318;2023-08-17T05:53:08;12.25;;;4.70;;
59008;SDS011;44794;42.652;23.318;2023-08-17T05:55:34;11.02;;;4.03;;
59008;SDS011;44794;42.652;23.318;2023-08-17T05:57:59;11.40;;;5.15;;
59008;SDS011;44794;42.652;23.318;2023-08-17T06:00:25;9.13;;;4.47;;
59008;SDS011;44794;42.652;23.318;2023-08-17T06:02:50;10.57;;;5.05;;
59008;SDS011;44794;42.652;23.318;2023-08-17T06:05:16;13.90;;;5.13;;
59008;SDS011;44794;42.652;23.318;2023-08-17T06:07:42;9.80;;;5.68;;
59008;SDS011;44794;42.652;23.318;2023-08-17T06:10:09;13.43;;;5.35;;
59008;SDS011;44794;42.652;23.318;2023-08-17T06:12:35;7.40;;;5.00;;
59008;SDS011;44794;42.652;23.318;2023-08-17T06:15:03;12.32;;;4.68;;
59008;SDS011;44794;42.652;23.318;2023-08-17T06:17:29;11.80;;;5.28;;
59008;SDS011;44794;42.652;23.318;2023-08-17T06:19:54;15.00;;;5.18;;
59008;SDS011;44794;42.652;23.318;2023-08-17T06:22:20;14.90;;;4.68;;
59008;SDS011;44794;42.652;23.318;2023-08-17T06:24:45;12.55;;;4.60;;
59008;SDS011;44794;42.652;23.318;2023-08-17T06:27:13;11.63;;;4.50;;
59008;SDS011;44794;42.652;23.318;2023-08-17T06:29:40;12.10;;;4.97;;
59008;SDS011;44794;42.652;23.318;2023-08-17T06:32:05;13.70;;;5.03;;
59008;SDS011;44794;42.652;23.318;2023-08-17T06:34:31;8.90;;;4.22;;
59008;SDS011;44794;42.652;23.318;2023-08-17T06:36:57;15.60;;;5.25;;
59008;SDS011;44794;42.652;23.318;2023-08-17T06:39:24;12.38;;;4.95;;
59008;SDS011;44794;42.652;23.318;2023-08-17T06:41:50;9.35;;;4.65;;
59008;SDS011;44794;42.652;23.318;2023-08-17T06:44:15;8.18;;;4.50;;
59008;SDS011;44794;42.652;23.318;2023-08-17T06:46:41;10.57;;;4.60;;
59008;SDS011;44794;42.652;23.318;2023-08-17T06:49:06;10.55;;;4.35;;
59008;SDS011;44794;42.652;23.318;2023-08-17T06:51:33;8.13;;;4.40;;
59008;SDS011;44794;42.652;23.318;2023-08-17T06:53:59;7.32;;;4.40;;
59008;SDS011;44794;42.652;23.318;2023-08-17T06:56:25;5.68;;;3.97;;
59008;SDS011;44794;42.652;23.318;2023-08-17T06:58:50;7.40;;;4.10;;
59008;SDS011;44794;42.652;23.318;2023-08-17T07:01:15;11.48;;;5.00;;
59008;SDS011;44794;42.652;23.318;2023-08-17T07:03:41;8.70;;;4.25;;
59008;SDS011;44794;42.652;23.318;2023-08-17T07:06:06;8.88;;;4.30;;
59008;SDS011;44794;42.652;23.318;2023-08-17T07:08:32;8.55;;;4.43;;
59008;SDS011;44794;42.652;23.318;2023-08-17T07:10:58;5.97;;;4.13;;
59008;SDS011;44794;42.652;23.318;2023-08-17T07:13:23;5.35;;;3.88;;
59008;SDS011;44794;42.652;23.318;2023-08-17T07:15:49;9.27;;;5.30;;
59008;SDS011;44794;42.652;23.318;2023-08-17T07:18:14;6.95;;;4.38;;
59008;SDS011;44794;42.652;23.318;2023-08-17T07:20:39;10.77;;;5.00;;
59008;SDS011;44794;42.652;23.318;2023-08-17T07:23:05;9.00;;;4.15;;
59008;SDS011;44794;42.652;23.318;2023-08-17T07:25:30;9.98;;;4.22;;
59008;SDS011;44794;42.652;23.318;2023-08-17T07:27:56;12.88;;;5.43;;
59008;SDS011;44794;42.652;23.318;2023-08-17T07:30:21;6.07;;;4.15;;
59008;SDS011;44794;42.652;23.318;2023-08-17T07:32:47;9.30;;;4.30;;
59008;SDS011;44794;42.652;23.318;2023-08-17T07:35:12;8.73;;;4.13;;
59008;SDS011;44794;42.652;23.318;2023-08-17T07:37:38;7.72;;;4.00;;
59008;SDS011;44794;42.652;23.318;2023-08-17T07:40:04;6.80;;;3.72;;
59008;SDS011;44794;42.652;23.318;2023-08-17T07:42:30;9.57;;;3.97;;
59008;SDS011;44794;42.652;23.318;2023-08-17T07:44:55;4.85;;;3.67;;
59008;SDS011;44794;42.652;23.318;2023-08-17T07:47:21;12.60;;;4.20;;
59008;SDS011;44794;42.652;23.318;2023-08-17T07:49:46;9.50;;;4.10;;
59008;SDS011;44794;42.652;23.318;2023-08-17T07:52:12;7.53;;;4.07;;
59008;SDS011;44794;42.652;23.318;2023-08-17T07:54:37;11.15;;;4.40;;
59008;SDS011;44794;42.652;23.318;2023-08-17T07:57:02;11.10;;;4.50;;
59008;SDS011;44794;42.652;23.318;2023-08-17T07:59:28;6.80;;;4.57;;
59008;SDS011;44794;42.652;23.318;2023-08-17T08:01:54;9.30;;;4.93;;
59008;SDS011;44794;42.652;23.318;2023-08-17T08:04:19;9.27;;;4.75;;
59008;SDS011;44794;42.652;23.318;2023-08-17T08:06:45;9.95;;;4.95;;
59008;SDS011;44794;42.652;23.318;2023-08-17T08:09:11;16.63;;;5.65;;
59008;SDS011;44794;42.652;23.318;2023-08-17T08:11:37;9.55;;;5.00;;
59008;SDS011;44794;42.652;23.318;2023-08-17T08:14:02;10.70;;;4.72;;
59008;SDS011;44794;42.652;23.318;2023-08-17T08:16:28;8.40;;;4.78;;
59008;SDS011;44794;42.652;23.318;2023-08-17T08:18:55;9.75;;;5.03;;
59008;SDS011;44794;42.652;23.318;2023-08-17T08:21:21;11.25;;;5.10;;
59008;SDS011;44794;42.652;23.318;2023-08-17T08:23:47;12.88;;;5.38;;
59008;SDS011;44794;42.652;23.318;2023-08-17T08:26:12;10.43;;;5.47;;
59008;SDS011;44794;42.652;23.318;2023-08-17T08:28:37;8.15;;;5.00;;
59008;SDS011;44794;42.652;23.318;2023-08-17T08:31:03;6.10;;;5.13;;
59008;SDS011;44794;42.652;23.318;2023-08-17T08:33:29;13.25;;;5.18;;
59008;SDS011;44794;42.652;23.318;2023-08-17T08:35:54;8.02;;;4.82;;
59008;SDS011;44794;42.652;23.318;2023-08-17T08:38:20;22.08;;;5.80;;
59008;SDS011;44794;42.652;23.318;2023-08-17T08:40:46;11.73;;;5.03;;
59008;SDS011;44794;42.652;23.318;2023-08-17T08:43:12;7.80;;;4.78;;
59008;SDS011;44794;42.652;23.318;2023-08-17T08:45:38;10.60;;;5.22;;
59008;SDS011;44794;42.652;23.318;2023-08-17T08:48:07;8.25;;;5.07;;
59008;SDS011;44794;42.652;23.318;2023-08-17T08:50:35;12.55;;;4.97;;
59008;SDS011;44794;42.652;23.318;2023-08-17T08:53:02;8.27;;;4.68;;
59008;SDS011;44794;42.652;23.318;2023-08-17T08:55:30;7.40;;;4.65;;
59008;SDS011;44794;42.652;23.318;2023-08-17T08:57:59;9.55;;;5.00;;
59008;SDS011;44794;42.652;23.318;2023-08-17T09:00:25;8.25;;;4.65;;
59008;SDS011;44794;42.652;23.318;2023-08-17T09:02:51;8.18;;;5.10;;
59008;SDS011;44794;42.652;23.318;2023-08-17T09:05:18;8.93;;;4.63;;
59008;SDS011;44794;42.652;23.318;2023-08-17T09:07:44;8.68;;;4.97;;
59008;SDS011;44794;42.652;23.318;2023-08-17T09:10:11;9.70;;;5.10;;
59008;SDS011;44794;42.652;23.318;2023-08-17T09:12:36;6.78;;;4.75;;
59008;SDS011;44794;42.652;23.318;2023-08-17T09:15:03;9.95;;;4.57;;
59008;SDS011;44794;42.652;23.318;2023-08-17T09:17:31;7.50;;;4.47;;
59008;SDS011;44794;42.652;23.318;2023-08-17T09:19:59;6.63;;;4.03;;
59008;SDS011;44794;42.652;23.318;2023-08-17T09:22:25;11.23;;;4.57;;
59008;SDS011;44794;42.652;23.318;2023-08-17T09:25:07;8.57;;;4.35;;
59008;SDS011;44794;42.652;23.318;2023-08-17T09:27:38;6.30;;;3.92;;
59008;SDS011;44794;42.652;23.318;2023-08-17T09:30:07;8.18;;;4.05;;
59008;SDS011;44794;42.652;23.318;2023-08-17T09:32:34;9.18;;;4.35;;
59008;SDS011;44794;42.652;23.318;2023-08-17T09:35:03;7.13;;;4.15;;
59008;SDS011;44794;42.652;23.318;2023-08-17T09:37:33;7.35;;;3.85;;
59008;SDS011;44794;42.652;23.318;2023-08-17T09:39:59;7.15;;;3.80;;
59008;SDS011;44794;42.652;23.318;2023-08-17T09:42:25;6.70;;;3.95;;
59008;SDS011;44794;42.652;23.318;2023-08-17T09:44:52;8.52;;;3.83;;
59008;SDS011;44794;42.652;23.318;2023-08-17T09:47:18;6.10;;;4.03;;
59008;SDS011;44794;42.652;23.318;2023-08-17T09:49:50;7.97;;;4.05;;
59008;SDS011;44794;42.652;23.318;2023-08-17T09:52:18;6.45;;;3.90;;
59008;SDS011;44794;42.652;23.318;2023-08-17T09:54:47;6.07;;;3.85;;
59008;SDS011;44794;42.652;23.318;2023-08-17T09:57:13;6.28;;;3.45;;
59008;SDS011;44794;42.652;23.318;2023-08-17T09:59:39;5.05;;;3.13;;
59008;SDS011;44794;42.652;23.318;2023-08-17T10:02:07;4.63;;;2.97;;
59008;SDS011;44794;42.652;23.318;2023-08-17T10:04:42;5.85;;;3.28;;
59008;SDS011;44794;42.652;23.318;2023-08-17T10:07:09;6.95;;;3.35;;
59008;SDS011;44794;42.652;23.318;2023-08-17T10:09:39;6.60;;;3.05;;
59008;SDS011;44794;42.652;23.318;2023-08-17T10:12:09;8.10;;;3.35;;
59008;SDS011;44794;42.652;23.318;2023-08-17T10:14:39;7.82;;;3.05;;
59008;SDS011;44794;42.652;23.318;2023-08-17T10:17:11;8.05;;;3.08;;
59008;SDS011;44794;42.652;23.318;2023-08-17T10:22:20;7.38;;;3.30;;
59008;SDS011;44794;42.652;23.318;2023-08-17T10:24:48;10.43;;;3.60;;
59008;SDS011;44794;42.652;23.318;2023-08-17T10:27:14;6.70;;;2.83;;
59008;SDS011;44794;42.652;23.318;2023-08-17T10:29:41;6.93;;;2.90;;
59008;SDS011;44794;42.652;23.318;2023-08-17T10:32:08;9.43;;;3.20;;
59008;SDS011;44794;42.652;23.318;2023-08-17T10:34:34;5.43;;;3.28;;
59008;SDS011;44794;42.652;23.318;2023-08-17T10:37:00;7.93;;;3.10;;
59008;SDS011;44794;42.652;23.318;2023-08-17T10:39:27;4.90;;;3.10;;
59008;SDS011;44794;42.652;23.318;2023-08-17T10:41:54;4.32;;;3.15;;
59008;SDS011;44794;42.652;23.318;2023-08-17T10:44:40;6.13;;;3.20;;
59008;SDS011;44794;42.652;23.318;2023-08-17T10:47:22;4.50;;;3.03;;
59008;SDS011;44794;42.652;23.318;2023-08-17T10:49:55;7.63;;;2.95;;
59008;SDS011;44794;42.652;23.318;2023-08-17T10:52:27;8.40;;;3.15;;
59008;SDS011;44794;42.652;23.318;2023-08-17T10:54:54;6.50;;;3.30;;
59008;SDS011;44794;42.652;23.318;2023-08-17T10:57:25;5.72;;;3.17;;
59008;SDS011;44794;42.652;23.318;2023-08-17T11:02:35;6.30;;;3.00;;
59008;SDS011;44794;42.652;23.318;2023-08-17T11:05:02;4.50;;;2.65;;
59008;SDS011;44794;42.652;23.318;2023-08-17T11:07:38;6.82;;;2.92;;
59008;SDS011;44794;42.652;23.318;2023-08-17T11:12:44;9.63;;;2.90;;
59008;SDS011;44794;42.652;23.318;2023-08-17T11:15:10;6.82;;;3.40;;
59008;SDS011;44794;42.652;23.318;2023-08-17T11:17:36;5.22;;;3.05;;
59008;SDS011;44794;42.652;23.318;2023-08-17T11:20:01;3.65;;;2.80;;
59008;SDS011;44794;42.652;23.318;2023-08-17T11:22:27;4.45;;;2.88;;
59008;SDS011;44794;42.652;23.318;2023-08-17T11:24:53;4.38;;;2.80;;
59008;SDS011;44794;42.652;23.318;2023-08-17T11:27:18;6.55;;;3.05;;
59008;SDS011;44794;42.652;23.318;2023-08-17T11:29:45;12.20;;;3.55;;
59008;SDS011;44794;42.652;23.318;2023-08-17T11:32:10;5.63;;;3.30;;
59008;SDS011;44794;42.652;23.318;2023-08-17T11:34:37;4.38;;;3.67;;
59008;SDS011;44794;42.652;23.318;2023-08-17T11:37:03;6.15;;;3.78;;
59008;SDS011;44794;42.652;23.318;2023-08-17T11:39:32;18.90;;;4.30;;
59008;SDS011;44794;42.652;23.318;2023-08-17T11:41:59;9.85;;;3.20;;
59008;SDS011;44794;42.652;23.318;2023-08-17T11:44:25;4.22;;;3.20;;
59008;SDS011;44794;42.652;23.318;2023-08-17T11:46:51;7.65;;;3.05;;
59008;SDS011;44794;42.652;23.318;2023-08-17T11:49:17;9.20;;;3.38;;
59008;SDS011;44794;42.652;23.318;2023-08-17T11:51:42;7.45;;;3.63;;
59008;SDS011;44794;42.652;23.318;2023-08-17T11:54:08;7.95;;;3.83;;
59008;SDS011;44794;42.652;23.318;2023-08-17T11:56:34;8.82;;;4.18;;
59008;SDS011;44794;42.652;23.318;2023-08-17T11:59:07;7.63;;;4.57;;
59008;SDS011;44794;42.652;23.318;2023-08-17T12:01:36;5.38;;;4.20;;
59008;SDS011;44794;42.652;23.318;2023-08-17T12:04:03;10.80;;;4.55;;
59008;SDS011;44794;42.652;23.318;2023-08-17T12:06:30;8.80;;;4.50;;
59008;SDS011;44794;42.652;23.318;2023-08-17T12:08:55;8.68;;;3.92;;
59008;SDS011;44794;42.652;23.318;2023-08-17T12:11:23;5.68;;;4.10;;
59008;SDS011;44794;42.652;23.318;2023-08-17T12:13:50;6.65;;;3.67;;
59008;SDS011;44794;42.652;23.318;2023-08-17T12:16:22;5.53;;;3.78;;
59008;SDS011;44794;42.652;23.318;2023-08-17T12:18:48;7.97;;;4.22;;
59008;SDS011;44794;42.652;23.318;2023-08-17T12:21:14;7.47;;;4.10;;
59008;SDS011;44794;42.652;23.318;2023-08-17T12:23:40;6.47;;;4.00;;
59008;SDS011;44794;42.652;23.318;2023-08-17T12:26:06;8.70;;;4.05;;
59008;SDS011;44794;42.652;23.318;2023-08-17T12:28:32;7.22;;;4.22;;
59008;SDS011;44794;42.652;23.318;2023-08-17T12:31:00;8.98;;;4.03;;
59008;SDS011;44794;42.652;23.318;2023-08-17T12:33:27;6.85;;;3.92;;
59008;SDS011;44794;42.652;23.318;2023-08-17T12:35:52;10.10;;;4.22;;
59008;SDS011;44794;42.652;23.318;2023-08-17T12:38:18;7.43;;;4.28;;
59008;SDS011;44794;42.652;23.318;2023-08-17T12:40:44;6.20;;;4.20;;
59008;SDS011;44794;42.652;23.318;2023-08-17T12:43:09;9.05;;;4.35;;
59008;SDS011;44794;42.652;23.318;2023-08-17T12:45:34;5.18;;;3.83;;
59008;SDS011;44794;42.652;23.318;2023-08-17T12:48:00;6.53;;;3.95;;
59008;SDS011;44794;42.652;23.318;2023-08-17T12:50:25;11.00;;;4.40;;
59008;SDS011;44794;42.652;23.318;2023-08-17T12:52:51;8.20;;;4.85;;
59008;SDS011;44794;42.652;23.318;2023-08-17T12:55:16;10.20;;;4.22;;
59008;SDS011;44794;42.652;23.318;2023-08-17T12:57:41;10.63;;;4.32;;
59008;SDS011;44794;42.652;23.318;2023-08-17T13:00:07;6.53;;;4.38;;
59008;SDS011;44794;42.652;23.318;2023-08-17T13:02:33;8.93;;;4.60;;
59008;SDS011;44794;42.652;23.318;2023-08-17T13:04:59;9.07;;;4.63;;
59008;SDS011;44794;42.652;23.318;2023-08-17T13:07:25;19.45;;;6.07;;
59008;SDS011;44794;42.652;23.318;2023-08-17T13:09:50;9.20;;;5.88;;
59008;SDS011;44794;42.652;23.318;2023-08-17T13:12:16;10.07;;;5.55;;
59008;SDS011;44794;42.652;23.318;2023-08-17T13:14:41;8.93;;;5.63;;
59008;SDS011;44794;42.652;23.318;2023-08-17T13:17:07;8.20;;;5.10;;
59008;SDS011;44794;42.652;23.318;2023-08-17T13:19:32;11.00;;;5.88;;
59008;SDS011;44794;42.652;23.318;2023-08-17T13:21:58;8.18;;;5.28;;
59008;SDS011;44794;42.652;23.318;2023-08-17T13:24:23;10.52;;;5.88;;
59008;SDS011;44794;42.652;23.318;2023-08-17T13:26:49;13.75;;;5.40;;
59008;SDS011;44794;42.652;23.318;2023-08-17T13:29:17;10.35;;;4.80;;
59008;SDS011;44794;42.652;23.318;2023-08-17T13:31:43;7.65;;;5.20;;
59008;SDS011;44794;42.652;23.318;2023-08-17T13:34:09;11.27;;;5.57;;
59008;SDS011;44794;42.652;23.318;2023-08-17T13:36:36;5.90;;;5.28;;
59008;SDS011;44794;42.652;23.318;2023-08-17T13:39:02;11.50;;;6.18;;
59008;SDS011;44794;42.652;23.318;2023-08-17T13:41:27;11.80;;;5.78;;
59008;SDS011;44794;42.652;23.318;2023-08-17T13:43:53;10.63;;;5.72;;
59008;SDS011;44794;42.652;23.318;2023-08-17T13:46:18;11.13;;;5.93;;
59008;SDS011;44794;42.652;23.318;2023-08-17T13:48:47;9.05;;;5.53;;
59008;SDS011;44794;42.652;23.318;2023-08-17T13:51:12;9.48;;;5.68;;
59008;SDS011;44794;42.652;23.318;2023-08-17T13:53:37;11.32;;;5.63;;
59008;SDS011;44794;42.652;23.318;2023-08-17T13:56:03;8.43;;;5.55;;
59008;SDS011;44794;42.652;23.318;2023-08-17T13:58:29;10.70;;;5.38;;
59008;SDS011;44794;42.652;23.318;2023-08-17T14:00:54;8.63;;;5.40;;
59008;SDS011;44794;42.652;23.318;2023-08-17T14:03:20;8.10;;;5.30;;
59008;SDS011;44794;42.652;23.318;2023-08-17T14:05:46;6.13;;;4.75;;
59008;SDS011;44794;42.652;23.318;2023-08-17T14:08:12;9.05;;;5.25;;
59008;SDS011;44794;42.652;23.318;2023-08-17T14:10:37;9.43;;;5.72;;
59008;SDS011;44794;42.652;23.318;2023-08-17T14:13:03;6.95;;;4.75;;
59008;SDS011;44794;42.652;23.318;2023-08-17T14:15:29;6.85;;;4.88;;
59008;SDS011;44794;42.652;23.318;2023-08-17T14:17:55;13.55;;;5.85;;
59008;SDS011;44794;42.652;23.318;2023-08-17T14:20:20;7.25;;;5.10;;
59008;SDS011;44794;42.652;23.318;2023-08-17T14:22:45;7.88;;;5.25;;
59008;SDS011;44794;42.652;23.318;2023-08-17T14:25:11;6.90;;;4.80;;
59008;SDS011;44794;42.652;23.318;2023-08-17T14:27:36;9.57;;;4.90;;
59008;SDS011;44794;42.652;23.318;2023-08-17T14:30:02;6.75;;;5.00;;
59008;SDS011;44794;42.652;23.318;2023-08-17T14:32:28;12.75;;;5.72;;
59008;SDS011;44794;42.652;23.318;2023-08-17T14:34:54;9.63;;;5.38;;